createdAt,value
2022-09-10T00:00:44.682Z,0
2022-09-10T00:01:44.791Z,0
2022-09-10T00:02:44.716Z,0
2022-09-10T00:03:44.693Z,0
2022-09-10T00:04:44.709Z,0
2022-09-10T00:05:44.682Z,0
2022-09-10T00:06:44.676Z,0
2022-09-10T00:07:44.682Z,0
2022-09-10T00:08:44.689Z,0
2022-09-10T00:09:44.681Z,0
2022-09-10T00:10:44.738Z,0
2022-09-10T00:11:44.684Z,0
2022-09-10T00:12:44.679Z,0
2022-09-10T00:13:44.693Z,0
2022-09-10T00:14:44.678Z,0
2022-09-10T00:15:44.678Z,0
2022-09-10T00:16:44.678Z,0
2022-09-10T00:17:44.680Z,0
2022-09-10T00:18:44.704Z,0
2022-09-10T00:19:44.700Z,0
2022-09-10T00:20:44.679Z,0
2022-09-10T00:21:44.687Z,0
2022-09-10T00:22:44.692Z,0
2022-09-10T00:23:44.704Z,0
2022-09-10T00:24:44.686Z,0
2022-09-10T00:25:44.683Z,0
2022-09-10T00:26:44.685Z,0
2022-09-10T00:27:44.682Z,0
2022-09-10T00:28:44.696Z,0
2022-09-10T00:29:44.677Z,0
2022-09-10T00:30:44.689Z,0
2022-09-10T00:31:44.720Z,0
2022-09-10T00:32:44.677Z,0
2022-09-10T00:33:44.691Z,0
2022-09-10T00:34:44.699Z,0
2022-09-10T00:35:44.696Z,0
2022-09-10T00:36:44.684Z,0
2022-09-10T00:37:44.681Z,0
2022-09-10T00:38:44.693Z,0
2022-09-10T00:39:44.707Z,0
2022-09-10T00:40:44.683Z,0
2022-09-10T00:41:44.699Z,0
2022-09-10T00:42:44.682Z,0
2022-09-10T00:43:44.722Z,0
2022-09-10T00:44:44.693Z,0
2022-09-10T00:45:44.735Z,0
2022-09-10T00:46:44.675Z,0
2022-09-10T00:47:44.674Z,0
2022-09-10T00:48:44.683Z,0
2022-09-10T00:49:44.695Z,0
2022-09-10T00:50:44.677Z,0
2022-09-10T00:51:44.686Z,0
2022-09-10T00:52:44.680Z,0
2022-09-10T00:53:44.699Z,0
2022-09-10T00:54:44.682Z,0
2022-09-10T00:55:44.677Z,0
2022-09-10T00:56:44.675Z,0
2022-09-10T00:57:44.673Z,0
2022-09-10T00:58:44.691Z,0
2022-09-10T00:59:44.693Z,0
2022-09-10T01:00:44.711Z,0
2022-09-10T01:01:44.706Z,0
2022-09-10T01:02:44.680Z,0
2022-09-10T01:03:44.697Z,0
2022-09-10T01:04:44.695Z,0
2022-09-10T01:05:44.679Z,0
2022-09-10T01:06:44.678Z,0
2022-09-10T01:07:44.674Z,0
2022-09-10T01:08:44.694Z,0
2022-09-10T01:09:44.680Z,0
2022-09-10T01:10:44.677Z,0
2022-09-10T01:11:44.678Z,0
2022-09-10T01:12:44.676Z,0
2022-09-10T01:13:44.704Z,0
2022-09-10T01:14:44.682Z,0
2022-09-10T01:15:44.683Z,0
2022-09-10T01:16:44.681Z,0
2022-09-10T01:17:44.680Z,0
2022-09-10T01:18:44.688Z,0
2022-09-10T01:19:44.694Z,0
2022-09-10T01:20:44.684Z,0
2022-09-10T01:21:44.676Z,0
2022-09-10T01:22:44.680Z,0
2022-09-10T01:23:44.689Z,0
2022-09-10T01:24:44.688Z,0
2022-09-10T01:25:44.678Z,0
2022-09-10T01:26:44.695Z,0
2022-09-10T01:27:44.680Z,0
2022-09-10T01:28:44.684Z,0
2022-09-10T01:29:44.685Z,0
2022-09-10T01:30:44.686Z,0
2022-09-10T01:31:44.737Z,0
2022-09-10T01:32:44.682Z,0
2022-09-10T01:33:44.696Z,0
2022-09-10T01:34:44.698Z,0
2022-09-10T01:35:44.692Z,0
2022-09-10T01:36:44.677Z,0
2022-09-10T01:37:44.676Z,0
2022-09-10T01:38:44.689Z,0
2022-09-10T01:39:44.707Z,0
2022-09-10T01:40:44.722Z,0
2022-09-10T01:41:44.681Z,0
2022-09-10T01:42:44.683Z,0
2022-09-10T01:43:44.866Z,0
2022-09-10T01:44:44.680Z,0
2022-09-10T01:45:44.701Z,0
2022-09-10T01:46:44.682Z,0
2022-09-10T01:47:44.680Z,0
2022-09-10T01:48:44.699Z,0
2022-09-10T01:49:44.696Z,0
2022-09-10T01:50:44.681Z,0
2022-09-10T01:51:44.675Z,0
2022-09-10T01:52:44.676Z,0
2022-09-10T01:53:44.693Z,0
2022-09-10T01:54:44.676Z,0
2022-09-10T01:55:44.683Z,0
2022-09-10T01:56:44.681Z,0
2022-09-10T01:57:44.694Z,0
2022-09-10T01:58:44.699Z,0
2022-09-10T01:59:44.678Z,0
2022-09-10T02:00:44.738Z,0
2022-09-10T02:04:44.707Z,0
2022-09-10T02:05:44.680Z,0
2022-09-10T02:06:44.689Z,0
2022-09-10T02:07:44.690Z,0
2022-09-10T02:08:44.672Z,0
2022-09-10T02:09:44.686Z,0
2022-09-10T02:10:44.688Z,0
2022-09-10T02:11:44.680Z,0
2022-09-10T02:12:44.679Z,0
2022-09-10T02:13:44.679Z,0
2022-09-10T02:14:44.683Z,0
2022-09-10T02:15:44.679Z,0
2022-09-10T02:16:44.673Z,0
2022-09-10T02:17:44.684Z,0
2022-09-10T02:18:44.678Z,0
2022-09-10T02:19:44.714Z,0
2022-09-10T02:20:44.688Z,0
2022-09-10T02:21:44.681Z,0
2022-09-10T02:22:44.680Z,0
2022-09-10T02:23:44.690Z,0
2022-09-10T02:24:44.686Z,0
2022-09-10T02:25:44.689Z,0
2022-09-10T02:26:44.679Z,0
2022-09-10T02:27:44.692Z,0
2022-09-10T02:28:44.687Z,0
2022-09-10T02:29:44.682Z,0
2022-09-10T02:30:44.680Z,0
2022-09-10T02:31:44.869Z,0
2022-09-10T02:32:44.681Z,0
2022-09-10T02:33:44.675Z,0
2022-09-10T02:34:44.698Z,0
2022-09-10T02:35:44.682Z,0
2022-09-10T02:36:44.677Z,0
2022-09-10T02:37:44.686Z,0
2022-09-10T02:38:44.678Z,0
2022-09-10T02:39:44.746Z,0
2022-09-10T02:40:44.685Z,0
2022-09-10T02:41:44.675Z,0
2022-09-10T02:42:44.684Z,0
2022-09-10T02:43:44.686Z,0
2022-09-10T02:44:44.732Z,0
2022-09-10T02:45:44.798Z,0
2022-09-10T02:46:44.685Z,0
2022-09-10T02:47:44.678Z,0
2022-09-10T02:48:44.676Z,0
2022-09-10T02:49:44.708Z,0
2022-09-10T02:50:44.679Z,0
2022-09-10T02:51:44.684Z,0
2022-09-10T02:52:44.676Z,0
2022-09-10T02:53:44.678Z,0
2022-09-10T02:54:44.684Z,0
2022-09-10T02:55:44.672Z,0
2022-09-10T02:56:44.670Z,0
2022-09-10T02:57:44.673Z,0
2022-09-10T02:58:44.675Z,0
2022-09-10T02:59:44.690Z,0
2022-09-10T03:00:44.702Z,0
2022-09-10T03:01:44.750Z,0
2022-09-10T03:02:44.675Z,0
2022-09-10T03:03:44.667Z,0
2022-09-10T03:04:44.703Z,0
2022-09-10T03:05:44.672Z,0
2022-09-10T03:06:44.684Z,0
2022-09-10T03:07:44.670Z,0
2022-09-10T03:08:44.672Z,0
2022-09-10T03:09:44.693Z,0
2022-09-10T03:10:44.672Z,0
2022-09-10T03:11:44.669Z,0
2022-09-10T03:12:44.669Z,0
2022-09-10T03:13:44.665Z,0
2022-09-10T03:14:44.701Z,0
2022-09-10T03:15:44.683Z,0
2022-09-10T03:16:44.690Z,0
2022-09-10T03:17:44.671Z,0
2022-09-10T03:18:44.676Z,0
2022-09-10T03:19:44.701Z,0
2022-09-10T03:20:44.669Z,0
2022-09-10T03:21:44.669Z,0
2022-09-10T03:22:44.668Z,0
2022-09-10T03:23:44.775Z,0
2022-09-10T03:24:44.677Z,0
2022-09-10T03:25:49.071Z,0
2022-09-10T03:26:44.662Z,0
2022-09-10T03:27:44.683Z,0
2022-09-10T03:28:44.669Z,0
2022-09-10T03:29:44.684Z,0
2022-09-10T03:30:44.669Z,0
2022-09-10T03:31:44.732Z,0
2022-09-10T03:32:44.669Z,0
2022-09-10T03:33:44.671Z,0
2022-09-10T03:34:44.700Z,0
2022-09-10T03:35:44.697Z,0
2022-09-10T03:36:44.667Z,0
2022-09-10T03:37:44.672Z,0
2022-09-10T03:38:44.670Z,0
2022-09-10T03:39:44.772Z,0
2022-09-10T03:40:44.690Z,0
2022-09-10T03:41:44.673Z,0
2022-09-10T03:42:44.672Z,0
2022-09-10T03:43:44.705Z,0
2022-09-10T03:44:44.693Z,0
2022-09-10T03:45:44.707Z,0
2022-09-10T03:46:44.670Z,0
2022-09-10T03:47:44.672Z,0
2022-09-10T03:48:44.680Z,0
2022-09-10T03:49:44.697Z,0
2022-09-10T03:50:44.667Z,0
2022-09-10T03:51:44.674Z,0
2022-09-10T03:52:44.664Z,0
2022-09-10T03:53:44.681Z,0
2022-09-10T03:54:44.689Z,0
2022-09-10T03:55:44.667Z,0
2022-09-10T03:56:44.679Z,0
2022-09-10T03:57:44.666Z,0
2022-09-10T03:58:44.670Z,0
2022-09-10T03:59:44.690Z,0
2022-09-10T04:00:44.702Z,0
2022-09-10T04:01:44.671Z,0
2022-09-10T04:02:44.677Z,0
2022-09-10T04:03:44.679Z,1
2022-09-10T04:04:44.709Z,1
2022-09-10T04:05:44.667Z,3
2022-09-10T04:06:44.668Z,3
2022-09-10T04:07:44.679Z,5
2022-09-10T04:08:44.669Z,7
2022-09-10T04:09:44.689Z,7
2022-09-10T04:10:44.672Z,11
2022-09-10T04:11:44.673Z,14
2022-09-10T04:12:44.677Z,16
2022-09-10T04:13:44.672Z,20
2022-09-10T04:14:44.694Z,23
2022-09-10T04:15:44.676Z,29
2022-09-10T04:16:44.781Z,33
2022-09-10T04:17:44.679Z,36
2022-09-10T04:18:44.673Z,42
2022-09-10T04:19:44.702Z,49
2022-09-10T04:20:44.678Z,55
2022-09-10T04:21:44.678Z,62
2022-09-10T04:22:44.674Z,71
2022-09-10T04:23:44.679Z,79
2022-09-10T04:24:44.698Z,90
2022-09-10T04:25:44.683Z,99
2022-09-10T04:26:44.678Z,110
2022-09-10T04:27:44.681Z,121
2022-09-10T04:28:44.685Z,134
2022-09-10T04:29:44.688Z,147
2022-09-10T04:30:44.678Z,164
2022-09-10T04:31:44.794Z,178
2022-09-10T04:32:44.698Z,197
2022-09-10T04:33:44.673Z,215
2022-09-10T04:34:44.704Z,234
2022-09-10T04:35:44.674Z,256
2022-09-10T04:36:44.686Z,278
2022-09-10T04:37:44.671Z,298
2022-09-10T04:38:44.680Z,317
2022-09-10T04:39:44.747Z,333
2022-09-10T04:40:44.688Z,350
2022-09-10T04:41:44.679Z,368
2022-09-10T04:42:44.676Z,385
2022-09-10T04:43:44.676Z,403
2022-09-10T04:44:44.854Z,425
2022-09-10T04:45:44.736Z,447
2022-09-10T04:46:44.677Z,473
2022-09-10T04:47:44.679Z,506
2022-09-10T04:48:44.672Z,552
2022-09-10T04:49:44.709Z,617
2022-09-10T04:51:05.534Z,674
2022-09-10T04:51:44.670Z,722
2022-09-10T04:52:44.672Z,764
2022-09-10T04:53:44.691Z,790
2022-09-10T04:54:44.694Z,816
2022-09-10T04:55:44.677Z,846
2022-09-10T04:56:44.678Z,871
2022-09-10T04:57:44.679Z,888
2022-09-10T04:58:45.188Z,908
2022-09-10T04:59:44.688Z,923
2022-09-10T05:00:44.702Z,943
2022-09-10T05:01:44.681Z,965
2022-09-10T05:02:44.683Z,984
2022-09-10T05:03:44.670Z,1013
2022-09-10T05:04:44.707Z,1039
2022-09-10T05:05:44.676Z,1076
2022-09-10T05:06:44.683Z,1098
2022-09-10T05:07:44.675Z,1126
2022-09-10T05:08:44.682Z,1153
2022-09-10T05:09:44.688Z,1153
2022-09-10T05:10:44.672Z,1203
2022-09-10T05:11:44.679Z,1223
2022-09-10T05:12:44.676Z,1238
2022-09-10T05:13:44.675Z,1242
2022-09-10T05:14:44.684Z,1258
2022-09-10T05:15:44.665Z,1281
2022-09-10T05:16:44.729Z,1323
2022-09-10T05:17:44.666Z,1371
2022-09-10T05:18:44.671Z,1411
2022-09-10T05:19:44.702Z,1483
2022-09-10T05:20:44.666Z,1540
2022-09-10T05:21:44.678Z,1813
2022-09-10T05:22:44.665Z,2372
2022-09-10T05:23:44.673Z,1789
2022-09-10T05:24:44.686Z,1644
2022-09-10T05:25:44.671Z,1666
2022-09-10T05:26:44.666Z,1865
2022-09-10T05:27:44.666Z,3019
2022-09-10T05:28:44.662Z,3738
2022-09-10T05:29:44.687Z,1950
2022-09-10T05:30:48.250Z,1710
2022-09-10T05:31:44.680Z,1721
2022-09-10T05:32:44.664Z,1749
2022-09-10T05:33:44.667Z,1797
2022-09-10T05:34:44.692Z,1861
2022-09-10T05:35:44.673Z,1935
2022-09-10T05:36:44.667Z,2101
2022-09-10T05:37:44.667Z,3782
2022-09-10T05:38:44.945Z,3398
2022-09-10T05:39:44.742Z,3957
2022-09-10T05:40:44.661Z,5219
2022-09-10T05:41:44.674Z,4961
2022-09-10T05:42:44.672Z,5503
2022-09-10T05:43:44.673Z,6136
2022-09-10T05:44:44.687Z,6300
2022-09-10T05:45:44.732Z,6445
2022-09-10T05:46:44.674Z,6617
2022-09-10T05:47:44.666Z,6547
2022-09-10T06:30:49.716Z,10858
2022-09-10T06:31:44.676Z,11418
2022-09-10T06:32:44.667Z,11302
2022-09-10T06:33:44.666Z,11210
2022-09-10T06:34:44.665Z,11390
2022-09-10T06:35:44.662Z,11390
2022-09-10T06:36:44.671Z,11770
2022-09-10T06:37:44.662Z,11956
2022-09-10T06:38:44.672Z,11956
2022-09-10T06:39:44.748Z,12198
2022-09-10T06:40:44.665Z,12224
2022-09-10T06:41:49.073Z,12214
2022-09-10T06:42:44.668Z,12354
2022-09-10T06:43:44.662Z,12819
2022-09-10T06:44:44.662Z,12961
2022-09-10T06:45:44.702Z,13278
2022-09-10T06:47:28.225Z,13483
2022-09-10T06:48:37.591Z,13678
2022-09-10T06:48:48.008Z,13761
2022-09-10T06:49:44.666Z,13792
2022-09-10T06:50:52.629Z,14083
2022-09-10T06:51:51.034Z,14271
2022-09-10T06:52:51.021Z,14329
2022-09-10T06:53:51.009Z,14463
2022-09-10T06:54:50.997Z,14612
2022-09-10T06:55:51.019Z,14835
2022-09-10T06:56:51.030Z,14891
2022-09-10T06:57:51.005Z,14937
2022-09-10T06:58:50.996Z,14804
2022-09-10T06:59:51.008Z,14863
2022-09-10T07:00:51.053Z,15029
2022-09-10T07:01:51.088Z,15189
2022-09-10T07:02:50.992Z,15189
2022-09-10T07:03:51.003Z,15199
2022-09-10T07:04:50.996Z,15143
2022-09-10T07:05:51.004Z,16997
2022-09-10T07:06:51.027Z,15215
2022-09-10T07:07:51.009Z,15302
2022-09-10T07:08:51.012Z,15368
2022-09-10T07:09:50.998Z,15258
2022-09-10T07:10:50.999Z,15232
2022-09-10T07:11:51.011Z,15258
2022-09-10T07:12:51.010Z,15416
2022-09-10T07:13:50.998Z,15659
2022-09-10T07:14:51.005Z,15659
2022-09-10T07:15:51.046Z,14946
2022-09-10T07:16:51.029Z,14330
2022-09-10T07:17:51.026Z,13661
2022-09-10T07:18:51.002Z,12754
2022-09-10T07:19:51.007Z,12308
2022-09-10T07:20:51.006Z,11986
2022-09-10T07:21:51.038Z,11986
2022-09-10T07:22:51.003Z,11967
2022-09-10T07:23:51.006Z,11908
2022-09-10T07:24:51.027Z,12152
2022-09-10T07:25:51.003Z,12152
2022-09-10T07:26:51.016Z,12590
2022-09-10T07:27:51.000Z,11997
2022-09-10T07:28:50.999Z,12587
2022-09-10T07:29:51.026Z,13059
2022-09-10T07:30:51.116Z,13059
2022-09-10T07:31:51.028Z,14111
2022-09-10T07:32:50.998Z,13180
2022-09-10T07:33:50.998Z,7350
2022-09-10T07:34:50.997Z,7350
2022-09-10T07:35:50.991Z,10591
2022-09-10T07:36:51.014Z,13941
2022-09-10T07:37:50.997Z,13894
2022-09-10T07:38:51.006Z,13811
2022-09-10T07:39:51.040Z,13851
2022-09-10T07:40:51.004Z,13742
2022-09-10T07:41:51.035Z,13698
2022-09-10T07:42:50.997Z,13792
2022-09-10T07:43:50.997Z,13824
2022-09-10T07:44:50.994Z,13628
2022-09-10T07:45:51.056Z,13484
2022-09-10T07:46:51.018Z,13429
2022-09-10T07:47:50.999Z,13641
2022-09-10T07:48:50.998Z,13641
2022-09-10T07:49:50.990Z,13733
2022-09-10T07:50:50.994Z,13829
2022-09-10T07:51:51.011Z,14104
2022-09-10T07:52:50.997Z,14317
2022-09-10T07:53:51.041Z,14317
2022-09-10T07:54:50.993Z,14498
2022-09-10T07:55:50.997Z,14834
2022-09-10T07:56:51.003Z,14708
2022-09-10T07:57:51.009Z,15405
2022-09-10T07:58:50.993Z,15405
2022-09-10T07:59:50.998Z,15328
2022-09-10T08:00:50.996Z,15093
2022-09-10T08:01:51.031Z,15034
2022-09-10T08:02:50.998Z,15034
2022-09-10T08:03:50.994Z,14712
2022-09-10T08:04:50.992Z,15678
2022-09-10T08:05:50.988Z,16290
2022-09-10T08:06:51.034Z,16290
2022-09-10T08:07:50.995Z,15532
2022-09-10T08:08:50.996Z,16395
2022-09-10T08:09:50.990Z,16721
2022-09-10T08:10:51.006Z,7927
2022-09-10T08:11:51.006Z,7927
2022-09-10T08:12:50.985Z,12268
2022-09-10T08:13:50.989Z,5907
2022-09-10T08:14:51.004Z,5806
2022-09-10T08:15:51.081Z,5806
2022-09-10T08:16:51.004Z,5806
2022-09-10T08:17:50.988Z,7295
2022-09-10T08:18:51.005Z,7667
2022-09-10T08:19:51.006Z,15739
2022-09-10T08:20:50.990Z,15739
2022-09-10T08:21:51.004Z,14867
2022-09-10T08:22:50.993Z,17849
2022-09-10T08:23:51.115Z,17849
2022-09-10T08:24:50.991Z,14004
2022-09-10T08:25:50.990Z,10332
2022-09-10T08:26:51.006Z,10332
2022-09-10T08:27:51.004Z,16480
2022-09-10T08:28:50.989Z,17060
2022-09-10T08:29:50.996Z,17316
2022-09-10T08:30:51.069Z,17484
2022-09-10T08:31:51.019Z,17493
2022-09-10T08:32:50.995Z,17493
2022-09-10T08:33:50.995Z,17689
2022-09-10T08:34:51.002Z,15047
2022-09-10T08:35:50.990Z,17794
2022-09-10T08:36:51.014Z,17794
2022-09-10T08:37:51.003Z,17882
2022-09-10T08:38:51.003Z,18044
2022-09-10T08:39:51.026Z,18208
2022-09-10T09:49:51.030Z,7234
2022-09-10T09:50:50.995Z,7234
2022-09-10T09:51:50.997Z,7118
2022-09-10T09:52:51.010Z,7199
2022-09-10T09:54:00.958Z,14688
2022-09-10T09:55:12.516Z,19987
2022-09-10T09:55:50.994Z,19987
2022-09-10T09:56:51.005Z,9122
2022-09-10T09:57:50.996Z,19814
2022-09-10T09:58:50.996Z,19626
2022-09-10T09:59:50.993Z,19775
2022-09-10T10:00:51.003Z,9632
2022-09-10T10:01:51.074Z,20382
2022-09-10T10:02:51.012Z,20077
2022-09-10T10:03:50.994Z,20153
2022-09-10T10:04:51.012Z,19639
2022-09-10T10:05:50.996Z,20380
2022-09-10T10:06:50.998Z,20380
2022-09-10T10:07:51.005Z,12955
2022-09-10T10:08:50.996Z,20428
2022-09-10T10:09:51.004Z,9929
2022-09-10T10:10:50.995Z,7446
2022-09-10T10:11:50.997Z,6650
2022-09-10T10:12:51.022Z,6093
2022-09-10T10:13:50.991Z,6093
2022-09-10T10:14:51.004Z,5114
2022-09-10T10:15:51.025Z,4773
2022-09-10T10:16:50.996Z,4449
2022-09-10T10:17:51.021Z,4305
2022-09-10T10:18:50.991Z,4305
2022-09-10T10:19:50.997Z,4274
2022-09-10T10:20:50.997Z,4305
2022-09-10T10:21:51.004Z,4250
2022-09-10T10:22:51.018Z,4224
2022-09-10T10:23:50.993Z,4224
2022-09-10T10:24:50.997Z,3815
2022-09-10T10:25:50.991Z,3679
2022-09-10T10:26:50.986Z,3679
2022-09-10T10:27:51.005Z,3627
2022-09-10T10:28:50.996Z,3588
2022-09-10T10:29:50.983Z,3489
2022-09-10T10:30:51.040Z,3393
2022-09-10T10:31:50.998Z,3290
2022-09-10T10:32:51.008Z,3220
2022-09-10T10:33:50.990Z,3127
2022-09-10T10:34:50.998Z,3120
2022-09-10T10:35:50.989Z,3120
2022-09-10T10:36:50.993Z,3179
2022-09-10T10:37:51.012Z,3459
2022-09-10T10:38:51.007Z,3642
2022-09-10T10:39:51.036Z,3642
2022-09-10T10:40:50.995Z,3863
2022-09-10T10:41:50.983Z,4067
2022-09-10T10:42:50.997Z,4193
2022-09-10T10:43:50.995Z,4193
2022-09-10T10:44:50.986Z,4359
2022-09-10T10:45:50.996Z,4445
2022-09-10T10:46:50.989Z,4467
2022-09-10T10:47:51.022Z,4375
2022-09-10T10:48:50.988Z,4375
2022-09-10T10:49:50.989Z,4324
2022-09-10T10:50:52.897Z,4342
2022-09-10T10:51:50.981Z,4659
2022-09-10T10:52:51.006Z,4659
2022-09-10T10:53:50.985Z,5011
2022-09-10T10:54:50.984Z,5277
2022-09-10T10:55:50.987Z,5649
2022-09-10T10:56:50.996Z,7295
2022-09-10T10:57:51.001Z,7295
2022-09-10T10:58:54.107Z,7199
2022-09-10T10:59:50.994Z,6917
2022-09-10T11:00:50.981Z,6252
2022-09-10T11:01:51.083Z,6252
2022-09-10T11:02:51.011Z,5535
2022-09-10T11:03:50.990Z,4867
2022-09-10T11:04:50.990Z,4377
2022-09-10T11:05:50.983Z,4040
2022-09-10T11:06:50.986Z,3806
2022-09-10T11:07:51.002Z,3645
2022-09-10T11:08:50.989Z,3537
2022-09-10T11:09:50.984Z,3546
2022-09-10T11:10:50.987Z,3723
2022-09-10T11:11:50.996Z,4055
2022-09-10T11:12:50.995Z,4405
2022-09-10T11:13:50.997Z,4910
2022-09-10T11:14:50.996Z,5811
2022-09-10T11:15:51.030Z,7656
2022-09-10T11:16:54.230Z,7656
2022-09-10T11:17:51.007Z,18199
2022-09-10T11:18:50.999Z,16310
2022-09-10T11:20:05.315Z,10113
2022-09-10T11:20:50.980Z,10113
2022-09-10T11:21:50.980Z,8569
2022-09-10T11:22:51.005Z,8119
2022-09-10T11:23:50.997Z,7833
2022-09-10T11:24:50.985Z,7794
2022-09-10T11:25:50.997Z,7794
2022-09-10T11:26:50.991Z,6994
2022-09-10T11:27:50.996Z,6994
2022-09-10T11:28:50.992Z,6821
2022-09-10T11:29:51.002Z,6580
2022-09-10T11:30:51.033Z,6580
2022-09-10T11:31:50.992Z,6685
2022-09-10T11:32:50.997Z,7015
2022-09-10T11:33:51.007Z,7175
2022-09-10T11:34:50.983Z,7175
2022-09-10T11:35:50.988Z,7686
2022-09-10T11:36:50.985Z,8086
2022-09-10T11:37:51.011Z,16574
2022-09-10T11:38:50.997Z,16574
2022-09-10T11:39:51.014Z,10456
2022-09-10T11:40:50.986Z,9827
2022-09-10T11:41:50.980Z,7217
2022-09-10T11:42:50.999Z,6735
2022-09-10T11:43:50.995Z,6735
2022-09-10T11:44:50.992Z,6762
2022-09-10T11:45:50.987Z,12030
2022-09-10T11:46:50.989Z,10613
2022-09-10T11:47:51.022Z,10613
2022-09-10T11:48:50.994Z,8469
2022-09-10T11:49:51.025Z,7481
2022-09-10T11:50:50.993Z,5188
2022-09-10T11:51:50.981Z,4493
2022-09-10T11:52:51.028Z,4112
2022-09-10T11:53:50.983Z,4112
2022-09-10T11:54:50.989Z,3710
2022-09-10T11:55:50.990Z,3538
2022-09-10T11:56:50.991Z,3526
2022-09-10T11:57:51.015Z,3526
2022-09-10T11:58:51.002Z,3566
2022-09-10T11:59:50.993Z,3872
2022-09-10T12:00:50.986Z,3872
2022-09-10T12:01:51.026Z,4034
2022-09-10T12:02:51.000Z,4202
2022-09-10T12:03:51.020Z,4340
2022-09-10T12:04:50.994Z,4285
2022-09-10T12:05:50.981Z,4285
2022-09-10T12:06:50.989Z,4219
2022-09-10T12:07:50.996Z,4160
2022-09-10T12:08:51.005Z,3964
2022-09-10T12:09:50.989Z,3964
2022-09-10T12:10:50.982Z,3867
2022-09-10T12:11:50.989Z,3771
2022-09-10T12:12:51.022Z,3686
2022-09-10T12:13:50.990Z,3625
2022-09-10T12:14:50.999Z,3553
2022-09-10T12:15:51.001Z,3481
2022-09-10T12:16:50.992Z,3481
2022-09-10T12:17:51.010Z,3312
2022-09-10T12:18:50.994Z,3236
2022-09-10T12:19:50.990Z,3164
2022-09-10T12:20:50.982Z,3109
2022-09-10T12:21:50.992Z,3048
2022-09-10T12:22:51.008Z,3006
2022-09-10T12:23:50.981Z,2974
2022-09-10T12:24:50.978Z,2952
2022-09-10T12:25:50.983Z,2915
2022-09-10T12:26:50.991Z,2851
2022-09-10T12:27:51.008Z,2851
2022-09-10T12:28:50.988Z,2836
2022-09-10T12:29:50.983Z,2812
2022-09-10T12:30:51.048Z,2783
2022-09-10T12:31:50.993Z,2786
2022-09-10T12:32:50.994Z,2786
2022-09-10T12:33:50.989Z,2794
2022-09-10T12:34:50.981Z,2810
2022-09-10T12:35:50.989Z,2827
2022-09-10T12:36:50.992Z,2833
2022-09-10T12:37:50.998Z,2803
2022-09-10T12:38:50.982Z,2788
2022-09-10T12:39:51.038Z,2785
2022-09-10T12:40:50.981Z,2797
2022-09-10T12:41:50.980Z,2792
2022-09-10T12:42:50.995Z,2792
2022-09-10T12:43:50.987Z,2794
2022-09-10T12:44:50.980Z,2810
2022-09-10T12:45:51.016Z,2866
2022-09-10T12:46:50.982Z,2906
2022-09-10T12:47:51.163Z,2906
2022-09-10T12:48:50.995Z,2967
2022-09-10T12:49:50.989Z,3168
2022-09-10T12:50:50.983Z,3168
2022-09-10T12:51:50.991Z,3266
2022-09-10T12:52:50.998Z,3317
2022-09-10T12:53:50.994Z,3444
2022-09-10T12:54:50.996Z,3513
2022-09-10T12:55:50.992Z,3513
2022-09-10T12:56:50.986Z,3610
2022-09-10T12:57:51.002Z,3717
2022-09-10T12:58:51.008Z,3942
2022-09-10T12:59:50.986Z,3942
2022-09-10T13:00:50.988Z,4053
2022-09-10T13:01:51.112Z,4101
2022-09-10T13:02:51.010Z,4219
2022-09-10T13:03:50.986Z,4528
2022-09-10T13:04:51.001Z,4528
2022-09-10T13:05:50.981Z,4666
2022-09-10T13:06:50.987Z,4644
2022-09-10T13:07:50.996Z,4396
2022-09-10T13:08:50.991Z,4220
2022-09-10T13:09:50.989Z,4220
2022-09-10T13:10:50.983Z,4051
2022-09-10T13:11:50.985Z,3898
2022-09-10T13:12:51.019Z,3664
2022-09-10T13:13:50.983Z,3664
2022-09-10T13:14:50.981Z,3588
2022-09-10T13:15:51.037Z,3538
2022-09-10T13:16:50.982Z,3365
2022-09-10T13:17:51.028Z,3365
2022-09-10T13:18:55.061Z,3251
2022-09-10T13:19:50.983Z,3126
2022-09-10T13:20:50.982Z,3057
2022-09-10T13:21:50.994Z,2998
2022-09-10T13:22:51.002Z,2998
2022-09-10T13:23:50.992Z,3013
2022-09-10T13:24:50.999Z,3052
2022-09-10T13:25:50.992Z,3122
2022-09-10T13:26:50.986Z,3185
2022-09-10T13:27:51.015Z,3358
2022-09-10T13:28:50.984Z,3358
2022-09-10T13:29:50.985Z,3474
2022-09-10T13:30:51.038Z,3631
2022-09-10T13:31:50.988Z,3820
2022-09-10T13:32:51.001Z,4060
2022-09-10T13:33:50.993Z,4416
2022-09-10T13:34:50.989Z,4831
2022-09-10T13:35:50.985Z,5448
2022-09-10T13:36:50.983Z,6207
2022-09-10T13:37:51.005Z,6677
2022-09-10T13:38:50.989Z,7765
2022-09-10T13:39:51.012Z,7765
2022-09-10T13:40:50.979Z,8224
2022-09-10T13:41:50.986Z,8347
2022-09-10T13:42:50.999Z,9472
2022-09-10T13:43:50.983Z,10731
2022-09-10T13:44:50.991Z,10731
2022-09-10T13:45:51.098Z,15505
2022-09-10T13:46:50.992Z,16959
2022-09-10T13:47:51.005Z,17997
2022-09-10T13:48:50.982Z,17997
2022-09-10T13:49:50.980Z,17698
2022-09-10T13:50:50.988Z,18185
2022-09-10T13:51:50.982Z,16962
2022-09-10T13:52:51.015Z,19337
2022-09-10T13:53:50.986Z,19337
2022-09-10T13:54:50.991Z,11330
2022-09-10T13:55:50.989Z,14800
2022-09-10T13:56:50.998Z,14887
2022-09-10T13:57:50.997Z,13296
2022-09-10T13:58:50.985Z,21041
2022-09-10T13:59:50.985Z,21126
2022-09-10T14:00:50.988Z,12255
2022-09-10T14:01:51.079Z,12255
2022-09-10T14:02:51.070Z,13383
2022-09-10T14:03:50.981Z,13925
2022-09-10T14:04:50.980Z,11995
2022-09-10T14:05:50.995Z,13298
2022-09-10T14:06:50.988Z,13298
2022-09-10T14:07:51.002Z,13247
2022-09-10T14:08:50.988Z,20085
2022-09-10T14:09:50.982Z,16527
2022-09-10T14:10:50.985Z,16527
2022-09-10T14:11:50.994Z,14496
2022-09-10T14:12:50.997Z,14496
2022-09-10T14:13:51.017Z,11695
2022-09-10T14:14:50.995Z,8191
2022-09-10T14:15:51.023Z,8191
2022-09-10T14:16:50.993Z,8191
2022-09-10T14:17:51.006Z,6283
2022-09-10T14:18:50.984Z,6578
2022-09-10T14:19:50.993Z,6578
2022-09-10T14:20:50.983Z,7387
2022-09-10T14:21:50.983Z,11617
2022-09-10T14:22:51.020Z,11848
2022-09-10T14:23:50.985Z,12010
2022-09-10T14:24:50.991Z,9971
2022-09-10T14:25:50.980Z,9890
2022-09-10T14:26:50.984Z,16583
2022-09-10T14:27:55.159Z,14117
2022-09-10T14:28:50.997Z,12727
2022-09-10T14:29:50.997Z,12727
2022-09-10T14:30:51.037Z,11831
2022-09-10T14:31:50.985Z,7721
2022-09-10T14:32:51.000Z,5970
2022-09-10T14:33:50.992Z,5970
2022-09-10T14:34:50.986Z,7695
2022-09-10T14:35:50.992Z,12058
2022-09-10T14:36:50.982Z,11243
2022-09-10T14:37:51.002Z,12607
2022-09-10T14:38:50.990Z,9145
2022-09-10T14:39:51.070Z,15562
2022-09-10T14:40:50.983Z,9925
2022-09-10T14:41:50.994Z,15886
2022-09-10T14:42:51.007Z,15398
2022-09-10T14:43:50.988Z,14493
2022-09-10T14:44:50.986Z,15187
2022-09-10T14:45:50.987Z,13825
2022-09-10T14:46:50.987Z,10646
2022-09-10T14:47:50.997Z,8950
2022-09-10T14:48:50.983Z,6902
2022-09-10T14:49:51.003Z,5280
2022-09-10T14:50:50.986Z,4608
2022-09-10T14:51:50.988Z,3881
2022-09-10T14:52:51.166Z,3614
2022-09-10T14:53:50.993Z,3614
2022-09-10T14:54:50.980Z,3395
2022-09-10T14:55:50.986Z,3111
2022-09-10T14:56:50.980Z,3017
2022-09-10T14:57:50.995Z,3017
2022-09-10T14:58:51.000Z,2950
2022-09-10T14:59:55.295Z,2816
2022-09-10T15:00:51.002Z,2768
2022-09-10T15:01:51.016Z,2768
2022-09-10T15:02:51.002Z,2715
2022-09-10T15:03:50.992Z,2667
2022-09-10T15:04:51.051Z,2602
2022-09-10T15:05:51.005Z,2574
2022-09-10T15:06:50.991Z,2574
2022-09-10T15:07:50.998Z,2554
2022-09-10T15:08:50.995Z,2519
2022-09-10T15:09:51.014Z,2497
2022-09-10T15:10:50.994Z,2497
2022-09-10T15:11:50.991Z,2497
2022-09-10T15:12:51.002Z,2499
2022-09-10T15:13:50.993Z,2536
2022-09-10T15:14:50.983Z,2536
2022-09-10T15:15:51.022Z,2576
2022-09-10T15:16:50.981Z,2576
2022-09-10T15:17:50.997Z,2656
2022-09-10T15:18:51.001Z,2890
2022-09-10T15:19:50.997Z,3079
2022-09-10T15:20:50.996Z,3312
2022-09-10T15:21:50.986Z,3481
2022-09-10T15:22:51.003Z,3481
2022-09-10T15:23:51.007Z,3570
2022-09-10T15:25:09.011Z,3570
2022-09-10T15:25:50.993Z,3664
2022-09-10T15:26:50.985Z,3730
2022-09-10T15:27:51.001Z,3905
2022-09-10T15:28:51.014Z,3975
2022-09-10T15:29:50.987Z,3975
2022-09-10T15:30:51.067Z,4036
2022-09-10T15:31:51.000Z,4114
2022-09-10T15:32:51.015Z,4126
2022-09-10T15:33:50.984Z,4126